createdAt,value
2023-01-01T00:07:39.981Z,0.64
2023-01-01T00:17:40.014Z,0.63
2023-01-01T00:27:39.978Z,0.59
2023-01-01T00:37:44.946Z,0.58
2023-01-01T00:47:39.975Z,0.62
2023-01-01T00:57:40.025Z,0.45
2023-01-01T01:07:40.050Z,0.4
2023-01-01T01:17:40.022Z,0.32
2023-01-01T01:27:40.089Z,0.25
2023-01-01T01:37:40.038Z,0.68
2023-01-01T01:47:40.063Z,0.48
2023-01-01T01:57:40.060Z,0.33
2023-01-01T02:07:40.046Z,0.46
2023-01-01T02:17:40.063Z,0.32
2023-01-01T02:27:40.043Z,0.19
2023-01-01T02:37:40.065Z,0.1
2023-01-01T02:47:40.073Z,0.06
2023-01-01T02:57:40.112Z,0.1
2023-01-01T03:07:40.098Z,0.24
2023-01-01T03:17:40.138Z,0.33
2023-01-01T03:27:40.094Z,0.44
2023-01-01T03:37:40.114Z,0.38
2023-01-01T03:47:40.076Z,0.36
2023-01-01T03:57:40.132Z,0.34
2023-01-01T04:17:40.142Z,0.28
2023-01-01T04:27:40.134Z,0.38
2023-01-01T04:37:40.130Z,0.26
2023-01-01T04:47:40.129Z,0.2
2023-01-01T04:57:40.173Z,0.2
2023-01-01T05:07:40.144Z,0.21
2023-01-01T05:17:40.204Z,0.2
2023-01-01T05:27:40.165Z,0.03
2023-01-01T05:37:40.199Z,0
2023-01-01T05:47:40.159Z,0.11
2023-01-01T05:57:40.201Z,0.11
2023-01-01T06:07:44.763Z,0
2023-01-01T06:17:40.223Z,0.06
2023-01-01T06:27:40.210Z,-0.12
2023-01-01T06:37:40.235Z,-0.05
2023-01-01T06:47:40.169Z,-0.12
2023-01-01T06:57:40.220Z,-0.05
2023-01-01T07:07:40.203Z,0
2023-01-01T07:17:40.213Z,0.02
2023-01-01T07:27:40.209Z,0.07
2023-01-01T07:37:40.251Z,0.19
2023-01-01T07:47:40.222Z,0.35
2023-01-01T07:57:40.270Z,0.66
2023-01-01T08:07:40.219Z,1.01
2023-01-01T08:17:46.081Z,1.44
2023-01-01T08:27:40.230Z,1.91
2023-01-01T08:37:40.263Z,2.4
2023-01-01T08:47:40.351Z,3.16
2023-01-01T08:57:40.393Z,4.28
2023-01-01T09:07:40.281Z,6.06
2023-01-01T09:17:40.412Z,6.55
2023-01-01T09:27:40.303Z,6.97
2023-01-01T09:37:40.843Z,8.18
2023-01-01T09:47:40.389Z,8.76
2023-01-01T09:57:40.275Z,9.62
2023-01-01T10:07:40.241Z,10.09
2023-01-01T10:17:40.271Z,11.25
2023-01-01T10:27:40.235Z,11.31
2023-01-01T10:37:40.250Z,10.47
2023-01-01T10:47:40.215Z,12.13
2023-01-01T10:57:40.219Z,12.04
2023-01-01T11:07:40.246Z,11.58
2023-01-01T11:17:40.226Z,11.03
2023-01-01T11:27:40.204Z,10.68
2023-01-01T11:37:40.198Z,10.05
2023-01-01T11:47:40.214Z,10.13
2023-01-01T11:57:40.214Z,10.11
2023-01-01T12:07:40.188Z,10.17
2023-01-01T12:17:40.267Z,10.17
2023-01-01T12:27:40.180Z,10.23
2023-01-01T12:37:40.231Z,10.13
2023-01-01T12:47:40.187Z,10.12
2023-01-01T12:57:40.229Z,10.21
2023-01-01T13:07:40.195Z,10.48
2023-01-01T13:17:40.197Z,10.54
2023-01-01T13:27:40.177Z,10.74
2023-01-01T13:37:40.198Z,10.7
2023-01-01T13:47:40.177Z,10.63
2023-01-01T13:57:40.224Z,10.47
2023-01-01T14:07:55.521Z,10.18
2023-01-01T14:17:40.195Z,10.04
2023-01-01T14:27:40.162Z,9.91
2023-01-01T14:37:40.204Z,9.35
2023-01-01T14:47:40.157Z,8.89
2023-01-01T14:57:40.182Z,8.52
2023-01-01T15:07:40.153Z,8.19
2023-01-01T15:17:40.208Z,7.74
2023-01-01T15:27:40.151Z,6.98
2023-01-01T15:37:40.178Z,6.1
2023-01-01T15:47:40.184Z,5.43
2023-01-01T15:57:40.290Z,5.05
2023-01-01T16:07:40.178Z,4.78
2023-01-01T16:17:40.194Z,4.52
2023-01-01T16:27:40.159Z,4.19
2023-01-01T16:37:40.214Z,3.83
2023-01-01T16:47:40.163Z,3.71
2023-01-01T16:57:40.270Z,3.43
2023-01-01T17:07:40.141Z,3.19
2023-01-01T17:17:40.211Z,2.92
2023-01-01T17:27:40.180Z,2.68
2023-01-01T17:37:40.196Z,2.7
2023-01-01T17:47:40.184Z,2.59
2023-01-01T17:57:40.334Z,2.5
2023-01-01T18:07:40.206Z,2.35
2023-01-01T18:17:40.223Z,2.02
2023-01-01T18:27:40.199Z,1.95
2023-01-01T18:37:40.226Z,1.85
2023-01-01T18:47:40.171Z,1.67
2023-01-01T18:57:40.227Z,1.54
2023-01-01T19:07:40.216Z,1.36
2023-01-01T19:17:40.244Z,1.16
2023-01-01T19:27:40.200Z,1.09
2023-01-01T19:37:40.243Z,0.94
2023-01-01T19:47:40.230Z,0.93
2023-01-01T19:57:40.257Z,0.96
2023-01-01T20:07:40.251Z,0.95
2023-01-01T20:17:40.247Z,0.84
2023-01-01T20:27:40.298Z,0.65
2023-01-01T20:37:40.360Z,0.63
2023-01-01T20:47:40.247Z,0.5
2023-01-01T20:57:40.394Z,0.42
2023-01-01T21:07:40.263Z,0.48
2023-01-01T21:17:40.282Z,0.34
2023-01-01T21:27:40.261Z,0.44
2023-01-01T21:37:40.314Z,0.4
2023-01-01T21:47:40.277Z,0.31
2023-01-01T21:57:40.324Z,0.27
2023-01-01T22:07:59.049Z,0.37
2023-01-01T22:17:40.361Z,0.32
2023-01-01T22:27:40.313Z,0.2
2023-01-01T22:37:40.334Z,0.14
2023-01-01T22:47:40.296Z,0.25
2023-01-01T22:57:40.352Z,0.17
2023-01-01T23:07:42.022Z,0.23
2023-01-01T23:17:40.478Z,0.29
2023-01-01T23:27:40.379Z,0.53
2023-01-01T23:37:40.387Z,0.49
2023-01-01T23:47:40.377Z,0.56
2023-01-01T23:57:40.383Z,0.47
